Eleni K — SXTG — position and weather

sailwx.info

Track history (hours):
 
Tides and Currents Weather Stations Pressure Air Temp Water Temp Dewpoint Dewpoint Depression Visibility Wind Speed Wind Dir Waves Ship Positions

Eleni K

Last reported at 2018-Jan-11 00:17 UTC. Time now 2018-Jan-18 19:48 UTC.
Position N 37°57' E 024°34'.

Length 75 m; draft 3.6 m.

Type: Cargo ship. MMSI: 240652000.

Date/timePositionNaut miles runAvg speedWind from/ knotsBaromVisibWave heightAir tempDewpointWater temp
2018-Jan-11 00:17N 37°57' E 024°34'3 9.2
2018-Jan-10 23:59N 37°54' E 024°32'4 8.9
2018-Jan-10 23:30N 37°51' E 024°28'7 8.9
2018-Jan-10 22:40N 37°46' E 024°21'2 9.1
2018-Jan-10 22:27N 37°45' E 024°19'7 9.1
2018-Jan-10 21:41N 37°40' E 024°13'2 9.3
2018-Jan-10 21:30N 37°39' E 024°11'5 8.9
2018-Jan-10 20:59N 37°37' E 024°06'5 9.3
2018-Jan-10 20:29N 37°37' E 024°00'11 9.3
2018-Jan-10 19:17N 37°39' E 023°46'3 9.4
2018-Jan-10 19:00N 37°40' E 023°43'5 9.4
2018-Jan-10 18:30N 37°43' E 023°40'5 9.9
2018-Jan-10 18:00N 37°48' E 023°37'4 8.7
2018-Jan-10 17:30N 37°50' E 023°32'5 9.8
2018-Jan-10 17:00N 37°50' E 023°26'5 9.8
2018-Jan-10 16:30N 37°51' E 023°20'5 9.8
2018-Jan-10 16:00N 37°52' E 023°14'5 9.8
2018-Jan-10 15:30N 37°53' E 023°08'5 9.9
2018-Jan-10 15:00N 37°54' E 023°02'3 5.7
2018-Jan-10 14:24N 37°57' E 022°58'2 4.6
2018-Jan-10 14:00N 37°58' E 022°57'3 5.8
2018-Jan-10 13:30N 37°59' E 022°53'4 8.8
2018-Jan-10 13:00N 38°01' E 022°48'5 8.7
2018-Jan-10 12:29N 38°04' E 022°43'4 0.1
2018-Jan-09 06:56N 38°02' E 022°48'4 9.6
2018-Jan-09 06:30N 37°60' E 022°52'5 9.4
2018-Jan-09 06:00N 37°57' E 022°57'3 4.7
2018-Jan-09 05:24N 37°55' E 023°00'1 3.6
2018-Jan-09 05:00N 37°55' E 023°02'4 7.5
2018-Jan-09 04:30N 37°53' E 023°06'4 8.6
2018-Jan-09 04:00N 37°51' E 023°11'4 8.9
2018-Jan-09 03:30N 37°47' E 023°14'5 9.1
2018-Jan-09 03:00N 37°43' E 023°17'4 8.6
2018-Jan-09 02:30N 37°39' E 023°19'5 9.0
2018-Jan-09 02:00N 37°39' E 023°25'5 8.9
2018-Jan-09 01:25N 37°37' E 023°31'23 8.7
2018-Jan-08 22:46N 37°20' E 023°50'10 9.2
2018-Jan-08 21:43N 37°12' E 023°57'3 9.3
2018-Jan-08 21:23N 37°10' E 023°59'4 9.2
2018-Jan-08 21:00N 37°07' E 024°02'5 9.4
2018-Jan-08 20:30N 37°03' E 024°06'5 9.3
2018-Jan-08 20:00N 36°60' E 024°09'5 9.4
2018-Jan-08 19:30N 36°56' E 024°13'5 9.4
2018-Jan-08 19:00N 36°52' E 024°16'5 9.2
2018-Jan-08 18:30N 36°49' E 024°20'5 9.3
2018-Jan-08 17:58N 36°45' E 024°24'3 1.0
2018-Jan-08 15:07N 36°43' E 024°27'0 0.8
2018-Jan-08 14:56N 36°43' E 024°27'1 2.4
2018-Jan-08 14:28N 36°43' E 024°25'4 8.8
2018-Jan-08 14:00N 36°46' E 024°21'4 8.2
2018-Jan-08 13:30N 36°42' E 024°18'4 8.2
2018-Jan-08 13:00N 36°38' E 024°19'2 3.9
2018-Jan-08 12:30N 36°39' E 024°22'0 0.4
2018-Jan-08 12:00N 36°39' E 024°22'0 0.0
2018-Jan-08 11:30N 36°39' E 024°22'0 0.0
2018-Jan-08 11:00N 36°39' E 024°22'0 0.0
2018-Jan-08 10:30N 36°39' E 024°22'0 0.0
2018-Jan-08 10:00N 36°39' E 024°22'0 0.0
2018-Jan-08 09:30N 36°39' E 024°22'0 0.0
2018-Jan-08 09:00N 36°39' E 024°22'0 0.0
2018-Jan-08 08:30N 36°39' E 024°22'0 0.0
2018-Jan-08 08:00N 36°39' E 024°22'0 0.0
2018-Jan-08 07:30N 36°39' E 024°22'0 0.0
2018-Jan-08 07:00N 36°39' E 024°22'0 0.0
2018-Jan-08 06:30N 36°39' E 024°22'0 0.1
2018-Jan-08 06:00N 36°39' E 024°22'65 5.9
2018-Jan-07 19:02N 37°34' E 023°37'0 6.7
2018-Jan-07 19:00N 37°34' E 023°37'3 6.7
2018-Jan-07 18:30N 37°36' E 023°34'4 7.1
2018-Jan-07 18:00N 37°39' E 023°31'4 7.7
2018-Jan-07 17:30N 37°39' E 023°26'4 7.8
2018-Jan-07 17:00N 37°40' E 023°21'3 6.8
2018-Jan-07 16:30N 37°41' E 023°18'4 8.6
2018-Jan-07 16:00N 37°45' E 023°15'4 8.5
2018-Jan-07 15:30N 37°49' E 023°12'4 8.1
2018-Jan-07 15:00N 37°52' E 023°09'4 8.4
2018-Jan-07 14:30N 37°54' E 023°04'4 7.1
2018-Jan-07 13:56N 37°56' E 022°60'3 5.8
2018-Jan-07 13:30N 37°57' E 022°57'2 4.9
2018-Jan-07 13:00N 37°59' E 022°55'5 9.0
2018-Jan-07 12:30N 38°01' E 022°50'4 8.9
2018-Jan-07 12:00N 38°03' E 022°45'5 8.8
2018-Jan-07 11:29N 38°06' E 022°40'  
2018-Jan-03 23:37N 38°05' E 022°43'2 8.4
2018-Jan-03 23:20N 38°04' E 022°45'3 8.2
2018-Jan-03 22:56N 38°02' E 022°49'4 8.2
2018-Jan-03 22:30N 37°60' E 022°53'4 8.2
2018-Jan-03 22:00N 37°58' E 022°57'3 5.0
2018-Jan-03 21:19N 37°55' E 023°00'2 5.0
2018-Jan-03 21:00N 37°55' E 023°02'4 8.6
2018-Jan-03 20:30N 37°53' E 023°07'4 8.9
2018-Jan-03 20:00N 37°50' E 023°11'5 9.6
2018-Jan-03 19:30N 37°46' E 023°15'5 9.4
2018-Jan-03 19:00N 37°42' E 023°17'4 8.0
2018-Jan-03 18:30N 37°40' E 023°21'5 9.5
2018-Jan-03 17:57N 37°39' E 023°28'4 9.4
2018-Jan-03 17:30N 37°37' E 023°33'5 9.4
2018-Jan-03 17:00N 37°34' E 023°38'23 9.3
2018-Jan-03 14:30N 37°24' E 024°04'5 9.3
2018-Jan-03 13:55N 37°22' E 024°10'4 9.1
2018-Jan-03 13:29N 37°20' E 024°14'4 9.0
2018-Jan-03 13:00N 37°18' E 024°19'4 8.9
2018-Jan-03 12:30N 37°16' E 024°24'5 9.1
2018-Jan-03 12:00N 37°14' E 024°29'5 9.1
2018-Jan-03 11:30N 37°12' E 024°34'5 9.1
2018-Jan-03 11:00N 37°09' E 024°39'4 8.9
2018-Jan-03 10:30N 37°06' E 024°43'4 9.0
2018-Jan-03 10:00N 37°03' E 024°47'4 8.8
2018-Jan-03 09:30N 37°00' E 024°51'4 8.8
2018-Jan-03 09:00N 36°57' E 024°55'4 8.0
2018-Jan-03 08:30N 36°55' E 024°59'4 8.4
2018-Jan-03 08:00N 36°55' E 025°05'4 8.5
2018-Jan-03 07:30N 36°53' E 025°09'4 8.4
2018-Jan-03 07:00N 36°51' E 025°14'4 7.9
2018-Jan-03 06:30N 36°49' E 025°18'4 8.4
2018-Jan-03 06:00N 36°46' E 025°22'4 8.7
2018-Jan-03 05:30N 36°43' E 025°25'5 9.1
2018-Jan-03 05:00N 36°38' E 025°23'5 9.4
2018-Jan-03 04:30N 36°36' E 025°18'5 9.1
2018-Jan-03 04:00N 36°33' E 025°14'4 8.9
2018-Jan-03 03:30N 36°30' E 025°10'5 9.0
2018-Jan-03 03:00N 36°26' E 025°07'5 9.1
2018-Jan-03 02:30N 36°23' E 025°03'4 8.9
2018-Jan-03 02:00N 36°19' E 024°60'5 9.2
2018-Jan-03 01:30N 36°16' E 024°56'4 7.9
2018-Jan-03 01:00N 36°12' E 024°54'4 7.9
2018-Jan-03 00:30N 36°09' E 024°55'4 7.7
2018-Jan-03 00:00N 36°05' E 024°56'4 7.7
2018-Jan-02 23:30N 36°01' E 024°57'4 7.7
2018-Jan-02 23:00N 35°57' E 024°58'4 7.8
2018-Jan-02 22:30N 35°53' E 024°58'12 8.1
2018-Jan-02 21:04N 35°42' E 025°01'1 8.2
2018-Jan-02 20:56N 35°41' E 025°01'4 8.1
2018-Jan-02 20:30N 35°38' E 025°03'4 7.8
2018-Jan-02 20:00N 35°34' E 025°05'11 7.8
2018-Jan-02 18:38N 35°25' E 025°11'2 8.7
2018-Jan-02 18:25N 35°24' E 025°13'29 3.7
2018-Jan-02 10:40N 35°14' E 025°46'2 0.1
2018-Jan-01 14:06N 35°15' E 025°45'0 0.3
2018-Jan-01 13:59N 35°15' E 025°45'1 2.2
2018-Jan-01 13:30N 35°15' E 025°46'25 9.5
2018-Jan-01 10:50N 35°39' E 025°37'410.2
2018-Jan-01 10:29N 35°42' E 025°34'510.2
2018-Jan-01 09:58N 35°46' E 025°31'510.3
2018-Jan-01 09:30N 35°50' E 025°28'1010.3
2018-Jan-01 08:30N 35°59' E 025°20'510.2
2018-Jan-01 08:00N 36°03' E 025°17'510.2
2018-Jan-01 07:30N 36°07' E 025°13'510.1
2018-Jan-01 07:00N 36°11' E 025°10'1010.0
2018-Jan-01 06:00N 36°20' E 025°03'510.1
2018-Jan-01 05:30N 36°24' E 024°59'510.2
2018-Jan-01 05:00N 36°28' E 024°56'1010.4
2018-Jan-01 04:00N 36°37' E 024°48'510.4
2018-Jan-01 03:30N 36°41' E 024°45'510.4
2018-Jan-01 03:00N 36°46' E 024°43'510.2
2018-Jan-01 02:30N 36°51' E 024°40'510.0
2018-Jan-01 02:00N 36°54' E 024°36'510.2
2018-Jan-01 01:30N 36°57' E 024°31'1010.2
2018-Jan-01 00:30N 37°04' E 024°21'  
Track history (hours):
 
Tides and Currents Weather Stations Pressure Air Temp Water Temp Dewpoint Dewpoint Depression Visibility Wind Speed Wind Dir Waves Ship Positions

Eleni K

Last reported at 2018-Jan-11 00:17 UTC. Time now 2018-Jan-18 19:48 UTC.
Position N 37°57' E 024°34'.

Length 75 m; draft 3.6 m.

Type: Cargo ship. MMSI: 240652000.

Date/timePositionNaut miles runAvg speedWind from/ knotsBaromVisibWave heightAir tempDewpointWater temp
2018-Jan-11 00:17N 37°57' E 024°34'3 9.2
2018-Jan-10 23:59N 37°54' E 024°32'4 8.9
2018-Jan-10 23:30N 37°51' E 024°28'7 8.9
2018-Jan-10 22:40N 37°46' E 024°21'2 9.1
2018-Jan-10 22:27N 37°45' E 024°19'7 9.1
2018-Jan-10 21:41N 37°40' E 024°13'2 9.3
2018-Jan-10 21:30N 37°39' E 024°11'5 8.9
2018-Jan-10 20:59N 37°37' E 024°06'5 9.3
2018-Jan-10 20:29N 37°37' E 024°00'11 9.3
2018-Jan-10 19:17N 37°39' E 023°46'3 9.4
2018-Jan-10 19:00N 37°40' E 023°43'5 9.4
2018-Jan-10 18:30N 37°43' E 023°40'5 9.9
2018-Jan-10 18:00N 37°48' E 023°37'4 8.7
2018-Jan-10 17:30N 37°50' E 023°32'5 9.8
2018-Jan-10 17:00N 37°50' E 023°26'5 9.8
2018-Jan-10 16:30N 37°51' E 023°20'5 9.8
2018-Jan-10 16:00N 37°52' E 023°14'5 9.8
2018-Jan-10 15:30N 37°53' E 023°08'5 9.9
2018-Jan-10 15:00N 37°54' E 023°02'3 5.7
2018-Jan-10 14:24N 37°57' E 022°58'2 4.6
2018-Jan-10 14:00N 37°58' E 022°57'3 5.8
2018-Jan-10 13:30N 37°59' E 022°53'4 8.8
2018-Jan-10 13:00N 38°01' E 022°48'5 8.7
2018-Jan-10 12:29N 38°04' E 022°43'4 0.1
2018-Jan-09 06:56N 38°02' E 022°48'4 9.6
2018-Jan-09 06:30N 37°60' E 022°52'5 9.4
2018-Jan-09 06:00N 37°57' E 022°57'3 4.7
2018-Jan-09 05:24N 37°55' E 023°00'1 3.6
2018-Jan-09 05:00N 37°55' E 023°02'4 7.5
2018-Jan-09 04:30N 37°53' E 023°06'4 8.6
2018-Jan-09 04:00N 37°51' E 023°11'4 8.9
2018-Jan-09 03:30N 37°47' E 023°14'5 9.1
2018-Jan-09 03:00N 37°43' E 023°17'4 8.6
2018-Jan-09 02:30N 37°39' E 023°19'5 9.0
2018-Jan-09 02:00N 37°39' E 023°25'5 8.9
2018-Jan-09 01:25N 37°37' E 023°31'23 8.7
2018-Jan-08 22:46N 37°20' E 023°50'10 9.2
2018-Jan-08 21:43N 37°12' E 023°57'3 9.3
2018-Jan-08 21:23N 37°10' E 023°59'4 9.2
2018-Jan-08 21:00N 37°07' E 024°02'5 9.4
2018-Jan-08 20:30N 37°03' E 024°06'5 9.3
2018-Jan-08 20:00N 36°60' E 024°09'5 9.4
2018-Jan-08 19:30N 36°56' E 024°13'5 9.4
2018-Jan-08 19:00N 36°52' E 024°16'5 9.2
2018-Jan-08 18:30N 36°49' E 024°20'5 9.3
2018-Jan-08 17:58N 36°45' E 024°24'3 1.0
2018-Jan-08 15:07N 36°43' E 024°27'0 0.8
2018-Jan-08 14:56N 36°43' E 024°27'1 2.4
2018-Jan-08 14:28N 36°43' E 024°25'4 8.8
2018-Jan-08 14:00N 36°46' E 024°21'4 8.2
2018-Jan-08 13:30N 36°42' E 024°18'4 8.2
2018-Jan-08 13:00N 36°38' E 024°19'2 3.9
2018-Jan-08 12:30N 36°39' E 024°22'0 0.4
2018-Jan-08 12:00N 36°39' E 024°22'0 0.0
2018-Jan-08 11:30N 36°39' E 024°22'0 0.0
2018-Jan-08 11:00N 36°39' E 024°22'0 0.0
2018-Jan-08 10:30N 36°39' E 024°22'0 0.0
2018-Jan-08 10:00N 36°39' E 024°22'0 0.0
2018-Jan-08 09:30N 36°39' E 024°22'0 0.0
2018-Jan-08 09:00N 36°39' E 024°22'0 0.0
2018-Jan-08 08:30N 36°39' E 024°22'0 0.0
2018-Jan-08 08:00N 36°39' E 024°22'0 0.0
2018-Jan-08 07:30N 36°39' E 024°22'0 0.0
2018-Jan-08 07:00N 36°39' E 024°22'0 0.0
2018-Jan-08 06:30N 36°39' E 024°22'0 0.1
2018-Jan-08 06:00N 36°39' E 024°22'65 5.9
2018-Jan-07 19:02N 37°34' E 023°37'0 6.7
2018-Jan-07 19:00N 37°34' E 023°37'3 6.7
2018-Jan-07 18:30N 37°36' E 023°34'4 7.1
2018-Jan-07 18:00N 37°39' E 023°31'4 7.7
2018-Jan-07 17:30N 37°39' E 023°26'4 7.8
2018-Jan-07 17:00N 37°40' E 023°21'3 6.8
2018-Jan-07 16:30N 37°41' E 023°18'4 8.6
2018-Jan-07 16:00N 37°45' E 023°15'4 8.5
2018-Jan-07 15:30N 37°49' E 023°12'4 8.1
2018-Jan-07 15:00N 37°52' E 023°09'4 8.4
2018-Jan-07 14:30N 37°54' E 023°04'4 7.1
2018-Jan-07 13:56N 37°56' E 022°60'3 5.8
2018-Jan-07 13:30N 37°57' E 022°57'2 4.9
2018-Jan-07 13:00N 37°59' E 022°55'5 9.0
2018-Jan-07 12:30N 38°01' E 022°50'4 8.9
2018-Jan-07 12:00N 38°03' E 022°45'5 8.8
2018-Jan-07 11:29N 38°06' E 022°40'  
2018-Jan-03 23:37N 38°05' E 022°43'2 8.4
2018-Jan-03 23:20N 38°04' E 022°45'3 8.2
2018-Jan-03 22:56N 38°02' E 022°49'4 8.2
2018-Jan-03 22:30N 37°60' E 022°53'4 8.2
2018-Jan-03 22:00N 37°58' E 022°57'3 5.0
2018-Jan-03 21:19N 37°55' E 023°00'2 5.0
2018-Jan-03 21:00N 37°55' E 023°02'4 8.6
2018-Jan-03 20:30N 37°53' E 023°07'4 8.9
2018-Jan-03 20:00N 37°50' E 023°11'5 9.6
2018-Jan-03 19:30N 37°46' E 023°15'5 9.4
2018-Jan-03 19:00N 37°42' E 023°17'4 8.0
2018-Jan-03 18:30N 37°40' E 023°21'5 9.5
2018-Jan-03 17:57N 37°39' E 023°28'4 9.4
2018-Jan-03 17:30N 37°37' E 023°33'5 9.4
2018-Jan-03 17:00N 37°34' E 023°38'23 9.3
2018-Jan-03 14:30N 37°24' E 024°04'5 9.3
2018-Jan-03 13:55N 37°22' E 024°10'4 9.1
2018-Jan-03 13:29N 37°20' E 024°14'4 9.0
2018-Jan-03 13:00N 37°18' E 024°19'4 8.9
2018-Jan-03 12:30N 37°16' E 024°24'5 9.1
2018-Jan-03 12:00N 37°14' E 024°29'5 9.1
2018-Jan-03 11:30N 37°12' E 024°34'5 9.1
2018-Jan-03 11:00N 37°09' E 024°39'4 8.9
2018-Jan-03 10:30N 37°06' E 024°43'4 9.0
2018-Jan-03 10:00N 37°03' E 024°47'4 8.8
2018-Jan-03 09:30N 37°00' E 024°51'4 8.8
2018-Jan-03 09:00N 36°57' E 024°55'4 8.0
2018-Jan-03 08:30N 36°55' E 024°59'4 8.4
2018-Jan-03 08:00N 36°55' E 025°05'4 8.5
2018-Jan-03 07:30N 36°53' E 025°09'4 8.4
2018-Jan-03 07:00N 36°51' E 025°14'4 7.9
2018-Jan-03 06:30N 36°49' E 025°18'4 8.4
2018-Jan-03 06:00N 36°46' E 025°22'4 8.7
2018-Jan-03 05:30N 36°43' E 025°25'5 9.1
2018-Jan-03 05:00N 36°38' E 025°23'5 9.4
2018-Jan-03 04:30N 36°36' E 025°18'5 9.1
2018-Jan-03 04:00N 36°33' E 025°14'4 8.9
2018-Jan-03 03:30N 36°30' E 025°10'5 9.0
2018-Jan-03 03:00N 36°26' E 025°07'5 9.1
2018-Jan-03 02:30N 36°23' E 025°03'4 8.9
2018-Jan-03 02:00N 36°19' E 024°60'5 9.2
2018-Jan-03 01:30N 36°16' E 024°56'4 7.9
2018-Jan-03 01:00N 36°12' E 024°54'4 7.9
2018-Jan-03 00:30N 36°09' E 024°55'4 7.7
2018-Jan-03 00:00N 36°05' E 024°56'4 7.7
2018-Jan-02 23:30N 36°01' E 024°57'4 7.7
2018-Jan-02 23:00N 35°57' E 024°58'4 7.8
2018-Jan-02 22:30N 35°53' E 024°58'12 8.1
2018-Jan-02 21:04N 35°42' E 025°01'1 8.2
2018-Jan-02 20:56N 35°41' E 025°01'4 8.1
2018-Jan-02 20:30N 35°38' E 025°03'4 7.8
2018-Jan-02 20:00N 35°34' E 025°05'11 7.8
2018-Jan-02 18:38N 35°25' E 025°11'2 8.7
2018-Jan-02 18:25N 35°24' E 025°13'29 3.7
2018-Jan-02 10:40N 35°14' E 025°46'2 0.1
2018-Jan-01 14:06N 35°15' E 025°45'0 0.3
2018-Jan-01 13:59N 35°15' E 025°45'1 2.2
2018-Jan-01 13:30N 35°15' E 025°46'25 9.5
2018-Jan-01 10:50N 35°39' E 025°37'410.2
2018-Jan-01 10:29N 35°42' E 025°34'510.2
2018-Jan-01 09:58N 35°46' E 025°31'510.3
2018-Jan-01 09:30N 35°50' E 025°28'1010.3
2018-Jan-01 08:30N 35°59' E 025°20'510.2
2018-Jan-01 08:00N 36°03' E 025°17'510.2
2018-Jan-01 07:30N 36°07' E 025°13'510.1
2018-Jan-01 07:00N 36°11' E 025°10'1010.0
2018-Jan-01 06:00N 36°20' E 025°03'510.1
2018-Jan-01 05:30N 36°24' E 024°59'510.2
2018-Jan-01 05:00N 36°28' E 024°56'1010.4
2018-Jan-01 04:00N 36°37' E 024°48'510.4
2018-Jan-01 03:30N 36°41' E 024°45'510.4
2018-Jan-01 03:00N 36°46' E 024°43'510.2
2018-Jan-01 02:30N 36°51' E 024°40'510.0
2018-Jan-01 02:00N 36°54' E 024°36'510.2
2018-Jan-01 01:30N 36°57' E 024°31'1010.2
2018-Jan-01 00:30N 37°04' E 024°21'  

Dump ship's entire track history